sensor_id;sensor_type;location;lat;lon;timestamp;temperature;humidity
19090;DHT22;9677;50.656;13.064;2023-05-02T00:01:13;17.10;46.30
19090;DHT22;9677;50.656;13.064;2023-05-02T00:03:42;17.10;46.30
19090;DHT22;9677;50.656;13.064;2023-05-02T00:06:11;17.10;46.30
19090;DHT22;9677;50.656;13.064;2023-05-02T00:08:40;17.20;46.40
19090;DHT22;9677;50.656;13.064;2023-05-02T00:11:09;17.10;46.30
19090;DHT22;9677;50.656;13.064;2023-05-02T00:13:39;17.10;46.40
19090;DHT22;9677;50.656;13.064;2023-05-02T00:16:10;17.00;46.50
19090;DHT22;9677;50.656;13.064;2023-05-02T00:18:39;17.10;46.50
19090;DHT22;9677;50.656;13.064;2023-05-02T00:21:07;17.10;46.50
19090;DHT22;9677;50.656;13.064;2023-05-02T00:23:36;17.00;46.40
19090;DHT22;9677;50.656;13.064;2023-05-02T00:26:07;17.10;46.50
19090;DHT22;9677;50.656;13.064;2023-05-02T00:28:41;17.00;46.60
19090;DHT22;9677;50.656;13.064;2023-05-02T00:31:09;17.00;46.50
19090;DHT22;9677;50.656;13.064;2023-05-02T00:33:38;17.00;46.50
19090;DHT22;9677;50.656;13.064;2023-05-02T00:36:13;16.90;46.50
19090;DHT22;9677;50.656;13.064;2023-05-02T00:38:42;16.90;46.80
19090;DHT22;9677;50.656;13.064;2023-05-02T00:41:10;17.20;46.80
19090;DHT22;9677;50.656;13.064;2023-05-02T00:43:40;17.00;46.70
19090;DHT22;9677;50.656;13.064;2023-05-02T00:46:09;16.90;46.70
19090;DHT22;9677;50.656;13.064;2023-05-02T00:48:39;17.10;46.80
19090;DHT22;9677;50.656;13.064;2023-05-02T00:51:07;16.80;46.80
19090;DHT22;9677;50.656;13.064;2023-05-02T00:53:38;16.90;46.80
19090;DHT22;9677;50.656;13.064;2023-05-02T00:56:07;16.80;46.90
19090;DHT22;9677;50.656;13.064;2023-05-02T00:58:37;16.80;46.90
19090;DHT22;9677;50.656;13.064;2023-05-02T01:01:16;16.80;47.00
19090;DHT22;9677;50.656;13.064;2023-05-02T01:04:01;16.80;47.20
19090;DHT22;9677;50.656;13.064;2023-05-02T01:06:44;16.90;47.30
19090;DHT22;9677;50.656;13.064;2023-05-02T01:09:28;16.80;47.30
19090;DHT22;9677;50.656;13.064;2023-05-02T01:12:11;16.70;47.30
19090;DHT22;9677;50.656;13.064;2023-05-02T01:14:47;16.70;47.20
19090;DHT22;9677;50.656;13.064;2023-05-02T01:17:23;16.90;47.40
19090;DHT22;9677;50.656;13.064;2023-05-02T01:19:57;17.30;47.60
19090;DHT22;9677;50.656;13.064;2023-05-02T01:22:28;16.70;47.30
19090;DHT22;9677;50.656;13.064;2023-05-02T01:25:04;16.70;47.30
19090;DHT22;9677;50.656;13.064;2023-05-02T01:27:42;16.70;47.40
19090;DHT22;9677;50.656;13.064;2023-05-02T01:30:19;16.60;47.40
19090;DHT22;9677;50.656;13.064;2023-05-02T01:32:49;16.60;47.40
19090;DHT22;9677;50.656;13.064;2023-05-02T01:35:21;16.60;47.40
19090;DHT22;9677;50.656;13.064;2023-05-02T01:37:51;16.70;47.40
19090;DHT22;9677;50.656;13.064;2023-05-02T01:40:20;16.60;47.40
19090;DHT22;9677;50.656;13.064;2023-05-02T01:42:52;16.60;48.00
19090;DHT22;9677;50.656;13.064;2023-05-02T01:45:23;16.60;47.50
19090;DHT22;9677;50.656;13.064;2023-05-02T01:47:53;16.60;47.50
19090;DHT22;9677;50.656;13.064;2023-05-02T01:50:24;16.60;47.50
19090;DHT22;9677;50.656;13.064;2023-05-02T01:52:53;16.60;47.60
19090;DHT22;9677;50.656;13.064;2023-05-02T01:55:23;16.60;47.50
19090;DHT22;9677;50.656;13.064;2023-05-02T01:57:53;16.50;47.50
19090;DHT22;9677;50.656;13.064;2023-05-02T02:00:24;16.50;47.50
19090;DHT22;9677;50.656;13.064;2023-05-02T02:02:56;16.60;47.60
19090;DHT22;9677;50.656;13.064;2023-05-02T02:05:26;16.80;47.70
19090;DHT22;9677;50.656;13.064;2023-05-02T02:07:55;16.40;47.50
19090;DHT22;9677;50.656;13.064;2023-05-02T02:10:25;16.40;47.50
19090;DHT22;9677;50.656;13.064;2023-05-02T02:13:02;16.40;47.50
19090;DHT22;9677;50.656;13.064;2023-05-02T02:15:37;16.30;47.60
19090;DHT22;9677;50.656;13.064;2023-05-02T02:18:09;16.30;47.60
19090;DHT22;9677;50.656;13.064;2023-05-02T02:20:42;16.20;47.60
19090;DHT22;9677;50.656;13.064;2023-05-02T02:23:13;16.20;47.60
19090;DHT22;9677;50.656;13.064;2023-05-02T02:25:42;16.20;47.60
19090;DHT22;9677;50.656;13.064;2023-05-02T02:28:14;16.10;47.60
19090;DHT22;9677;50.656;13.064;2023-05-02T02:30:43;16.10;47.60
19090;DHT22;9677;50.656;13.064;2023-05-02T02:33:12;16.30;47.80
19090;DHT22;9677;50.656;13.064;2023-05-02T02:35:45;16.00;47.70
19090;DHT22;9677;50.656;13.064;2023-05-02T02:38:25;16.10;47.90
19090;DHT22;9677;50.656;13.064;2023-05-02T02:41:00;16.00;48.00
19090;DHT22;9677;50.656;13.064;2023-05-02T02:43:43;16.00;47.90
19090;DHT22;9677;50.656;13.064;2023-05-02T02:46:27;15.90;47.90
19090;DHT22;9677;50.656;13.064;2023-05-02T02:49:09;15.80;48.10
19090;DHT22;9677;50.656;13.064;2023-05-02T02:51:46;15.80;48.00
19090;DHT22;9677;50.656;13.064;2023-05-02T02:54:25;15.80;47.90
19090;DHT22;9677;50.656;13.064;2023-05-02T02:57:00;15.70;47.90
19090;DHT22;9677;50.656;13.064;2023-05-02T02:59:32;15.70;47.90
19090;DHT22;9677;50.656;13.064;2023-05-02T03:02:06;15.70;47.90
19090;DHT22;9677;50.656;13.064;2023-05-02T03:04:37;15.60;48.00
19090;DHT22;9677;50.656;13.064;2023-05-02T03:07:08;15.60;48.00
19090;DHT22;9677;50.656;13.064;2023-05-02T03:09:41;15.50;47.90
19090;DHT22;9677;50.656;13.064;2023-05-02T03:12:14;15.50;48.00
19090;DHT22;9677;50.656;13.064;2023-05-02T03:14:43;15.40;48.00
19090;DHT22;9677;50.656;13.064;2023-05-02T03:17:13;15.40;48.00
19090;DHT22;9677;50.656;13.064;2023-05-02T03:19:41;15.30;48.00
19090;DHT22;9677;50.656;13.064;2023-05-02T03:22:11;15.60;48.20
19090;DHT22;9677;50.656;13.064;2023-05-02T03:24:39;15.20;48.10
19090;DHT22;9677;50.656;13.064;2023-05-02T03:27:09;15.40;48.30
19090;DHT22;9677;50.656;13.064;2023-05-02T03:29:40;15.30;48.30
19090;DHT22;9677;50.656;13.064;2023-05-02T03:32:10;15.10;48.20
19090;DHT22;9677;50.656;13.064;2023-05-02T03:34:42;15.10;48.30
19090;DHT22;9677;50.656;13.064;2023-05-02T03:37:11;15.20;48.40
19090;DHT22;9677;50.656;13.064;2023-05-02T03:39:39;15.00;48.40
19090;DHT22;9677;50.656;13.064;2023-05-02T03:42:07;14.90;48.40
19090;DHT22;9677;50.656;13.064;2023-05-02T03:44:36;14.90;48.40
19090;DHT22;9677;50.656;13.064;2023-05-02T03:47:04;14.90;48.40
19090;DHT22;9677;50.656;13.064;2023-05-02T03:49:39;15.50;48.90
19090;DHT22;9677;50.656;13.064;2023-05-02T03:52:08;14.70;48.60
19090;DHT22;9677;50.656;13.064;2023-05-02T03:54:37;14.70;48.60
19090;DHT22;9677;50.656;13.064;2023-05-02T03:57:05;14.70;48.70
19090;DHT22;9677;50.656;13.064;2023-05-02T03:59:34;14.60;48.60
19090;DHT22;9677;50.656;13.064;2023-05-02T04:02:12;14.60;48.70
19090;DHT22;9677;50.656;13.064;2023-05-02T04:04:46;14.50;48.70
19090;DHT22;9677;50.656;13.064;2023-05-02T04:07:18;14.40;48.70
19090;DHT22;9677;50.656;13.064;2023-05-02T04:09:56;14.40;48.80
19090;DHT22;9677;50.656;13.064;2023-05-02T04:12:26;14.40;48.90
19090;DHT22;9677;50.656;13.064;2023-05-02T04:14:55;14.30;49.00
19090;DHT22;9677;50.656;13.064;2023-05-02T04:17:27;14.30;49.10
19090;DHT22;9677;50.656;13.064;2023-05-02T04:19:56;14.20;49.10
19090;DHT22;9677;50.656;13.064;2023-05-02T04:22:29;14.20;49.30
19090;DHT22;9677;50.656;13.064;2023-05-02T04:25:01;14.20;49.30
19090;DHT22;9677;50.656;13.064;2023-05-02T04:27:31;14.10;49.30
19090;DHT22;9677;50.656;13.064;2023-05-02T04:30:00;14.10;49.30
19090;DHT22;9677;50.656;13.064;2023-05-02T04:32:29;14.00;49.40
19090;DHT22;9677;50.656;13.064;2023-05-02T04:35:03;14.00;49.50
19090;DHT22;9677;50.656;13.064;2023-05-02T04:37:32;14.00;49.70
19090;DHT22;9677;50.656;13.064;2023-05-02T04:40:00;14.00;49.70
19090;DHT22;9677;50.656;13.064;2023-05-02T04:42:30;13.90;49.70
19090;DHT22;9677;50.656;13.064;2023-05-02T04:45:11;13.90;49.80
19090;DHT22;9677;50.656;13.064;2023-05-02T04:47:42;13.90;49.90
19090;DHT22;9677;50.656;13.064;2023-05-02T04:50:12;13.90;50.00
19090;DHT22;9677;50.656;13.064;2023-05-02T04:52:40;13.90;50.10
19090;DHT22;9677;50.656;13.064;2023-05-02T04:55:09;13.90;50.10
19090;DHT22;9677;50.656;13.064;2023-05-02T04:57:37;13.90;50.10
19090;DHT22;9677;50.656;13.064;2023-05-02T05:00:11;13.90;50.20
19090;DHT22;9677;50.656;13.064;2023-05-02T05:02:40;13.90;51.00
19090;DHT22;9677;50.656;13.064;2023-05-02T05:05:13;14.10;50.40
19090;DHT22;9677;50.656;13.064;2023-05-02T05:07:41;13.90;50.40
19090;DHT22;9677;50.656;13.064;2023-05-02T05:10:11;14.30;50.50
19090;DHT22;9677;50.656;13.064;2023-05-02T05:12:44;13.90;50.40
19090;DHT22;9677;50.656;13.064;2023-05-02T05:15:13;14.00;50.50
19090;DHT22;9677;50.656;13.064;2023-05-02T05:17:46;14.00;50.50
19090;DHT22;9677;50.656;13.064;2023-05-02T05:20:16;14.00;50.60
19090;DHT22;9677;50.656;13.064;2023-05-02T05:22:47;14.00;50.70
19090;DHT22;9677;50.656;13.064;2023-05-02T05:25:17;14.00;50.60
19090;DHT22;9677;50.656;13.064;2023-05-02T05:27:49;14.10;50.70
19090;DHT22;9677;50.656;13.064;2023-05-02T05:30:19;14.10;50.70
19090;DHT22;9677;50.656;13.064;2023-05-02T05:32:48;14.10;50.70
19090;DHT22;9677;50.656;13.064;2023-05-02T05:35:18;14.30;50.90
19090;DHT22;9677;50.656;13.064;2023-05-02T05:37:46;14.40;51.00
19090;DHT22;9677;50.656;13.064;2023-05-02T05:40:16;14.20;50.90
19090;DHT22;9677;50.656;13.064;2023-05-02T05:42:49;14.20;50.90
19090;DHT22;9677;50.656;13.064;2023-05-02T05:45:23;14.30;51.00
19090;DHT22;9677;50.656;13.064;2023-05-02T05:47:53;14.30;51.00
19090;DHT22;9677;50.656;13.064;2023-05-02T05:50:25;14.40;51.10
19090;DHT22;9677;50.656;13.064;2023-05-02T05:52:54;14.40;51.10
19090;DHT22;9677;50.656;13.064;2023-05-02T05:55:23;15.10;51.40
19090;DHT22;9677;50.656;13.064;2023-05-02T05:57:51;14.50;51.20
19090;DHT22;9677;50.656;13.064;2023-05-02T06:00:20;14.50;51.20
19090;DHT22;9677;50.656;13.064;2023-05-02T06:02:50;14.60;51.30
19090;DHT22;9677;50.656;13.064;2023-05-02T06:05:30;14.60;51.30
19090;DHT22;9677;50.656;13.064;2023-05-02T06:07:59;14.70;51.40
19090;DHT22;9677;50.656;13.064;2023-05-02T06:10:27;14.80;51.30
19090;DHT22;9677;50.656;13.064;2023-05-02T06:12:56;14.80;51.10
19090;DHT22;9677;50.656;13.064;2023-05-02T06:15:32;14.90;51.10
19090;DHT22;9677;50.656;13.064;2023-05-02T06:18:03;15.00;51.10
19090;DHT22;9677;50.656;13.064;2023-05-02T06:20:34;15.30;51.10
19090;DHT22;9677;50.656;13.064;2023-05-02T06:23:03;15.10;51.10
19090;DHT22;9677;50.656;13.064;2023-05-02T06:25:31;15.10;51.00
19090;DHT22;9677;50.656;13.064;2023-05-02T06:27:59;15.30;50.90
19090;DHT22;9677;50.656;13.064;2023-05-02T06:30:28;15.30;50.90
19090;DHT22;9677;50.656;13.064;2023-05-02T06:32:56;15.30;50.80
19090;DHT22;9677;50.656;13.064;2023-05-02T06:35:25;15.30;50.70
19090;DHT22;9677;50.656;13.064;2023-05-02T06:37:55;15.40;50.70
19090;DHT22;9677;50.656;13.064;2023-05-02T06:40:23;15.50;50.80
19090;DHT22;9677;50.656;13.064;2023-05-02T06:42:52;15.50;50.80
19090;DHT22;9677;50.656;13.064;2023-05-02T06:45:20;15.80;50.80
19090;DHT22;9677;50.656;13.064;2023-05-02T06:47:48;15.70;50.60
19090;DHT22;9677;50.656;13.064;2023-05-02T06:50:17;15.70;50.50
19090;DHT22;9677;50.656;13.064;2023-05-02T06:52:45;15.80;50.50
19090;DHT22;9677;50.656;13.064;2023-05-02T06:55:15;16.00;50.50
19090;DHT22;9677;50.656;13.064;2023-05-02T06:57:44;15.90;50.40
19090;DHT22;9677;50.656;13.064;2023-05-02T07:00:14;15.90;50.30
19090;DHT22;9677;50.656;13.064;2023-05-02T07:02:44;16.00;50.10
19090;DHT22;9677;50.656;13.064;2023-05-02T07:05:13;16.00;50.00
19090;DHT22;9677;50.656;13.064;2023-05-02T07:07:42;16.10;49.90
19090;DHT22;9677;50.656;13.064;2023-05-02T07:10:11;16.10;49.80
19090;DHT22;9677;50.656;13.064;2023-05-02T07:12:41;16.20;49.80
19090;DHT22;9677;50.656;13.064;2023-05-02T07:15:10;16.30;49.90
19090;DHT22;9677;50.656;13.064;2023-05-02T07:17:39;16.30;49.70
19090;DHT22;9677;50.656;13.064;2023-05-02T07:20:09;16.30;50.20
19090;DHT22;9677;50.656;13.064;2023-05-02T07:22:39;16.30;49.60
19090;DHT22;9677;50.656;13.064;2023-05-02T07:25:08;16.30;49.50
19090;DHT22;9677;50.656;13.064;2023-05-02T07:27:37;16.40;49.50
19090;DHT22;9677;50.656;13.064;2023-05-02T07:30:07;16.40;49.50
19090;DHT22;9677;50.656;13.064;2023-05-02T07:32:36;16.40;49.40
19090;DHT22;9677;50.656;13.064;2023-05-02T07:35:05;16.40;49.30
19090;DHT22;9677;50.656;13.064;2023-05-02T07:37:34;16.50;49.50
19090;DHT22;9677;50.656;13.064;2023-05-02T07:40:03;16.40;49.30
19090;DHT22;9677;50.656;13.064;2023-05-02T07:42:33;16.50;49.40
19090;DHT22;9677;50.656;13.064;2023-05-02T07:45:02;16.50;49.40
19090;DHT22;9677;50.656;13.064;2023-05-02T07:47:32;16.50;49.50
19090;DHT22;9677;50.656;13.064;2023-05-02T07:50:01;16.70;49.60
19090;DHT22;9677;50.656;13.064;2023-05-02T07:52:30;16.50;49.60
19090;DHT22;9677;50.656;13.064;2023-05-02T07:54:59;16.60;49.50
19090;DHT22;9677;50.656;13.064;2023-05-02T07:57:27;16.60;49.50
19090;DHT22;9677;50.656;13.064;2023-05-02T07:59:56;16.60;49.40
19090;DHT22;9677;50.656;13.064;2023-05-02T08:02:24;16.70;49.40
19090;DHT22;9677;50.656;13.064;2023-05-02T08:04:54;16.70;49.40
19090;DHT22;9677;50.656;13.064;2023-05-02T08:07:23;17.00;49.60
19090;DHT22;9677;50.656;13.064;2023-05-02T08:09:51;16.70;49.40
19090;DHT22;9677;50.656;13.064;2023-05-02T08:12:20;16.70;49.30
19090;DHT22;9677;50.656;13.064;2023-05-02T08:14:48;16.70;49.30
19090;DHT22;9677;50.656;13.064;2023-05-02T08:17:17;16.80;49.40
19090;DHT22;9677;50.656;13.064;2023-05-02T08:19:45;16.80;49.40
19090;DHT22;9677;50.656;13.064;2023-05-02T08:22:15;16.80;49.40
19090;DHT22;9677;50.656;13.064;2023-05-02T08:24:43;16.80;49.40
19090;DHT22;9677;50.656;13.064;2023-05-02T08:27:12;16.80;49.40
19090;DHT22;9677;50.656;13.064;2023-05-02T08:29:40;16.90;49.40
19090;DHT22;9677;50.656;13.064;2023-05-02T08:32:08;16.90;49.30
19090;DHT22;9677;50.656;13.064;2023-05-02T08:34:37;16.90;49.30
19090;DHT22;9677;50.656;13.064;2023-05-02T08:37:07;16.90;49.30
19090;DHT22;9677;50.656;13.064;2023-05-02T08:39:37;16.90;49.30
19090;DHT22;9677;50.656;13.064;2023-05-02T08:42:06;16.90;49.40
19090;DHT22;9677;50.656;13.064;2023-05-02T08:44:36;16.90;49.50
19090;DHT22;9677;50.656;13.064;2023-05-02T08:47:04;17.10;49.70
19090;DHT22;9677;50.656;13.064;2023-05-02T08:49:34;17.10;49.80
19090;DHT22;9677;50.656;13.064;2023-05-02T08:52:04;17.10;49.90
19090;DHT22;9677;50.656;13.064;2023-05-02T08:54:37;17.10;49.90
19090;DHT22;9677;50.656;13.064;2023-05-02T08:57:06;17.30;50.00
19090;DHT22;9677;50.656;13.064;2023-05-02T08:59:35;17.20;49.90
19090;DHT22;9677;50.656;13.064;2023-05-02T09:02:10;16.40;49.10
19090;DHT22;9677;50.656;13.064;2023-05-02T09:04:43;17.50;50.00
19090;DHT22;9677;50.656;13.064;2023-05-02T09:07:12;17.30;49.70
19090;DHT22;9677;50.656;13.064;2023-05-02T09:09:42;17.60;49.60
19090;DHT22;9677;50.656;13.064;2023-05-02T09:12:11;17.80;49.70
19090;DHT22;9677;50.656;13.064;2023-05-02T09:14:39;17.80;49.60
19090;DHT22;9677;50.656;13.064;2023-05-02T09:17:08;17.40;49.40
19090;DHT22;9677;50.656;13.064;2023-05-02T09:19:37;17.70;50.10
19090;DHT22;9677;50.656;13.064;2023-05-02T09:22:05;17.50;49.40
19090;DHT22;9677;50.656;13.064;2023-05-02T09:24:34;17.60;49.40
19090;DHT22;9677;50.656;13.064;2023-05-02T09:27:04;17.60;49.50
19090;DHT22;9677;50.656;13.064;2023-05-02T09:29:33;17.60;49.50
19090;DHT22;9677;50.656;13.064;2023-05-02T09:32:04;17.80;49.50
19090;DHT22;9677;50.656;13.064;2023-05-02T09:34:34;17.80;49.30
19090;DHT22;9677;50.656;13.064;2023-05-02T09:37:03;18.00;49.20
19090;DHT22;9677;50.656;13.064;2023-05-02T09:39:32;17.90;48.90
19090;DHT22;9677;50.656;13.064;2023-05-02T09:42:00;17.80;48.80
19090;DHT22;9677;50.656;13.064;2023-05-02T09:44:37;17.90;48.70
19090;DHT22;9677;50.656;13.064;2023-05-02T09:47:06;18.10;48.90
19090;DHT22;9677;50.656;13.064;2023-05-02T09:49:39;17.80;48.70
19090;DHT22;9677;50.656;13.064;2023-05-02T09:52:09;17.80;48.80
19090;DHT22;9677;50.656;13.064;2023-05-02T09:54:38;18.10;49.00
19090;DHT22;9677;50.656;13.064;2023-05-02T09:57:07;17.90;48.80
19090;DHT22;9677;50.656;13.064;2023-05-02T09:59:39;17.80;48.70
19090;DHT22;9677;50.656;13.064;2023-05-02T10:02:08;17.80;48.80
19090;DHT22;9677;50.656;13.064;2023-05-02T10:04:38;17.90;48.80
19090;DHT22;9677;50.656;13.064;2023-05-02T10:07:08;17.90;48.90
19090;DHT22;9677;50.656;13.064;2023-05-02T10:09:42;17.90;48.90
19090;DHT22;9677;50.656;13.064;2023-05-02T10:12:13;17.90;48.90
19090;DHT22;9677;50.656;13.064;2023-05-02T10:14:48;17.90;48.90
19090;DHT22;9677;50.656;13.064;2023-05-02T10:17:21;18.00;48.80
19090;DHT22;9677;50.656;13.064;2023-05-02T10:19:58;18.30;48.90
19090;DHT22;9677;50.656;13.064;2023-05-02T10:22:30;18.10;48.70
19090;DHT22;9677;50.656;13.064;2023-05-02T10:25:01;18.50;48.90
19090;DHT22;9677;50.656;13.064;2023-05-02T10:27:31;18.20;48.70
19090;DHT22;9677;50.656;13.064;2023-05-02T10:30:01;18.20;48.60
19090;DHT22;9677;50.656;13.064;2023-05-02T10:32:32;18.20;48.60
19090;DHT22;9677;50.656;13.064;2023-05-02T10:35:02;18.50;48.70
19090;DHT22;9677;50.656;13.064;2023-05-02T10:37:34;18.40;48.70
19090;DHT22;9677;50.656;13.064;2023-05-02T10:40:04;18.40;48.70
19090;DHT22;9677;50.656;13.064;2023-05-02T10:42:37;18.50;48.80
19090;DHT22;9677;50.656;13.064;2023-05-02T10:45:11;18.60;48.80
19090;DHT22;9677;50.656;13.064;2023-05-02T10:47:40;18.60;48.70
19090;DHT22;9677;50.656;13.064;2023-05-02T10:50:09;18.90;48.60
19090;DHT22;9677;50.656;13.064;2023-05-02T10:52:38;18.80;48.40
19090;DHT22;9677;50.656;13.064;2023-05-02T10:55:23;18.80;48.30
19090;DHT22;9677;50.656;13.064;2023-05-02T10:58:19;18.80;48.10
19090;DHT22;9677;50.656;13.064;2023-05-02T11:00:50;18.90;48.10
19090;DHT22;9677;50.656;13.064;2023-05-02T11:03:53;18.90;48.10
19090;DHT22;9677;50.656;13.064;2023-05-02T11:06:23;18.90;48.00
19090;DHT22;9677;50.656;13.064;2023-05-02T11:08:52;19.00;48.00
19090;DHT22;9677;50.656;13.064;2023-05-02T11:11:45;19.00;48.10
19090;DHT22;9677;50.656;13.064;2023-05-02T11:17:16;19.20;48.00
19090;DHT22;9677;50.656;13.064;2023-05-02T11:22:56;19.30;47.90
19090;DHT22;9677;50.656;13.064;2023-05-02T11:25:44;19.40;47.90
19090;DHT22;9677;50.656;13.064;2023-05-02T11:28:38;19.50;47.80
19090;DHT22;9677;50.656;13.064;2023-05-02T11:34:24;19.60;47.10
19090;DHT22;9677;50.656;13.064;2023-05-02T11:36:52;19.60;47.30
19090;DHT22;9677;50.656;13.064;2023-05-02T11:39:21;19.70;47.20
19090;DHT22;9677;50.656;13.064;2023-05-02T11:41:50;19.70;47.30
19090;DHT22;9677;50.656;13.064;2023-05-02T11:44:20;19.70;47.10
19090;DHT22;9677;50.656;13.064;2023-05-02T11:46:49;19.80;47.00
19090;DHT22;9677;50.656;13.064;2023-05-02T11:49:17;19.80;46.90
19090;DHT22;9677;50.656;13.064;2023-05-02T11:51:47;19.80;47.10
19090;DHT22;9677;50.656;13.064;2023-05-02T11:54:18;19.90;46.90
19090;DHT22;9677;50.656;13.064;2023-05-02T11:56:48;19.90;47.10
19090;DHT22;9677;50.656;13.064;2023-05-02T11:59:18;19.80;47.10
19090;DHT22;9677;50.656;13.064;2023-05-02T12:01:47;20.20;47.20
19090;DHT22;9677;50.656;13.064;2023-05-02T12:04:16;20.10;47.10
19090;DHT22;9677;50.656;13.064;2023-05-02T12:10:01;20.30;47.00
19090;DHT22;9677;50.656;13.064;2023-05-02T12:12:31;20.40;46.70
19090;DHT22;9677;50.656;13.064;2023-05-02T12:15:03;20.50;46.90
19090;DHT22;9677;50.656;13.064;2023-05-02T12:17:36;20.70;46.90
19090;DHT22;9677;50.656;13.064;2023-05-02T12:20:34;20.90;46.90
19090;DHT22;9677;50.656;13.064;2023-05-02T12:23:04;21.00;47.10
19090;DHT22;9677;50.656;13.064;2023-05-02T12:25:41;21.00;46.60
19090;DHT22;9677;50.656;13.064;2023-05-02T12:28:11;21.20;46.10
19090;DHT22;9677;50.656;13.064;2023-05-02T12:30:40;21.50;45.90
19090;DHT22;9677;50.656;13.064;2023-05-02T12:33:09;21.60;45.50
19090;DHT22;9677;50.656;13.064;2023-05-02T12:35:38;21.60;45.10
19090;DHT22;9677;50.656;13.064;2023-05-02T12:38:10;21.60;44.80
19090;DHT22;9677;50.656;13.064;2023-05-02T12:40:50;21.70;45.20
19090;DHT22;9677;50.656;13.064;2023-05-02T12:43:21;21.70;44.50
19090;DHT22;9677;50.656;13.064;2023-05-02T12:45:57;21.70;44.50
19090;DHT22;9677;50.656;13.064;2023-05-02T12:48:41;21.70;44.10
19090;DHT22;9677;50.656;13.064;2023-05-02T12:51:22;21.60;43.80
19090;DHT22;9677;50.656;13.064;2023-05-02T12:57:24;21.60;44.00
19090;DHT22;9677;50.656;13.064;2023-05-02T12:59:53;21.50;43.90
19090;DHT22;9677;50.656;13.064;2023-05-02T13:02:23;21.60;44.00
19090;DHT22;9677;50.656;13.064;2023-05-02T13:04:57;21.50;44.30
19090;DHT22;9677;50.656;13.064;2023-05-02T13:07:32;21.50;44.40
19090;DHT22;9677;50.656;13.064;2023-05-02T13:10:01;21.40;44.30
19090;DHT22;9677;50.656;13.064;2023-05-02T13:12:33;21.50;44.50
19090;DHT22;9677;50.656;13.064;2023-05-02T13:15:05;21.50;44.50
19090;DHT22;9677;50.656;13.064;2023-05-02T13:17:38;21.60;44.60
19090;DHT22;9677;50.656;13.064;2023-05-02T13:20:08;21.60;44.50
19090;DHT22;9677;50.656;13.064;2023-05-02T13:22:38;21.70;44.60
19090;DHT22;9677;50.656;13.064;2023-05-02T13:25:08;21.80;44.60
19090;DHT22;9677;50.656;13.064;2023-05-02T13:27:44;21.90;44.60
19090;DHT22;9677;50.656;13.064;2023-05-02T13:30:28;21.90;44.20
19090;DHT22;9677;50.656;13.064;2023-05-02T13:32:57;22.00;44.40
19090;DHT22;9677;50.656;13.064;2023-05-02T13:35:26;22.10;44.30
19090;DHT22;9677;50.656;13.064;2023-05-02T13:37:54;22.20;44.30
19090;DHT22;9677;50.656;13.064;2023-05-02T13:40:23;22.50;44.30
19090;DHT22;9677;50.656;13.064;2023-05-02T13:42:53;22.40;44.20
19090;DHT22;9677;50.656;13.064;2023-05-02T13:45:21;22.40;43.80
19090;DHT22;9677;50.656;13.064;2023-05-02T13:47:51;22.50;43.70
19090;DHT22;9677;50.656;13.064;2023-05-02T13:50:20;22.50;43.60
19090;DHT22;9677;50.656;13.064;2023-05-02T13:52:49;22.70;43.80
19090;DHT22;9677;50.656;13.064;2023-05-02T13:55:17;22.80;43.50
19090;DHT22;9677;50.656;13.064;2023-05-02T13:57:47;22.80;43.30
19090;DHT22;9677;50.656;13.064;2023-05-02T14:00:19;22.70;43.20
19090;DHT22;9677;50.656;13.064;2023-05-02T14:02:49;22.60;42.90
19090;DHT22;9677;50.656;13.064;2023-05-02T14:05:22;22.80;42.70
19090;DHT22;9677;50.656;13.064;2023-05-02T14:07:52;22.80;42.80
19090;DHT22;9677;50.656;13.064;2023-05-02T14:10:20;22.70;42.60
19090;DHT22;9677;50.656;13.064;2023-05-02T14:12:49;22.70;42.50
19090;DHT22;9677;50.656;13.064;2023-05-02T14:15:22;22.60;42.70
19090;DHT22;9677;50.656;13.064;2023-05-02T14:17:53;22.60;42.70
19090;DHT22;9677;50.656;13.064;2023-05-02T14:20:22;22.60;43.10
19090;DHT22;9677;50.656;13.064;2023-05-02T14:22:50;22.60;43.20
19090;DHT22;9677;50.656;13.064;2023-05-02T14:25:19;22.60;43.10
19090;DHT22;9677;50.656;13.064;2023-05-02T14:27:48;22.70;43.20
19090;DHT22;9677;50.656;13.064;2023-05-02T14:30:18;22.70;43.00
19090;DHT22;9677;50.656;13.064;2023-05-02T14:32:48;22.70;42.80
19090;DHT22;9677;50.656;13.064;2023-05-02T14:35:16;22.70;42.70
19090;DHT22;9677;50.656;13.064;2023-05-02T14:37:45;22.70;42.60
19090;DHT22;9677;50.656;13.064;2023-05-02T14:40:14;22.70;42.70
19090;DHT22;9677;50.656;13.064;2023-05-02T14:42:43;22.70;42.20
19090;DHT22;9677;50.656;13.064;2023-05-02T14:45:12;22.70;42.20
19090;DHT22;9677;50.656;13.064;2023-05-02T14:47:41;22.60;42.20
19090;DHT22;9677;50.656;13.064;2023-05-02T14:50:11;22.50;42.00
19090;DHT22;9677;50.656;13.064;2023-05-02T14:52:40;22.50;41.90
19090;DHT22;9677;50.656;13.064;2023-05-02T14:55:09;22.40;42.20
19090;DHT22;9677;50.656;13.064;2023-05-02T14:57:38;22.30;42.00
19090;DHT22;9677;50.656;13.064;2023-05-02T15:00:07;22.20;42.10
19090;DHT22;9677;50.656;13.064;2023-05-02T15:02:37;22.10;42.10
19090;DHT22;9677;50.656;13.064;2023-05-02T15:05:06;22.00;42.10
19090;DHT22;9677;50.656;13.064;2023-05-02T15:07:40;21.70;42.20
19090;DHT22;9677;50.656;13.064;2023-05-02T15:10:08;21.50;42.30
19090;DHT22;9677;50.656;13.064;2023-05-02T15:12:38;21.40;42.70
19090;DHT22;9677;50.656;13.064;2023-05-02T15:17:44;21.00;43.20
19090;DHT22;9677;50.656;13.064;2023-05-02T15:20:13;20.90;43.20
19090;DHT22;9677;50.656;13.064;2023-05-02T15:22:44;20.80;43.80
19090;DHT22;9677;50.656;13.064;2023-05-02T15:25:12;20.70;43.90
19090;DHT22;9677;50.656;13.064;2023-05-02T15:27:41;20.50;43.80
19090;DHT22;9677;50.656;13.064;2023-05-02T15:30:11;20.40;43.90
19090;DHT22;9677;50.656;13.064;2023-05-02T15:32:43;20.30;44.10
19090;DHT22;9677;50.656;13.064;2023-05-02T15:35:12;20.20;44.10
19090;DHT22;9677;50.656;13.064;2023-05-02T15:37:41;20.10;44.40
19090;DHT22;9677;50.656;13.064;2023-05-02T15:40:11;19.90;44.30
19090;DHT22;9677;50.656;13.064;2023-05-02T15:42:41;19.80;44.80
19090;DHT22;9677;50.656;13.064;2023-05-02T15:45:11;19.80;45.00
19090;DHT22;9677;50.656;13.064;2023-05-02T15:47:40;19.60;44.70
19090;DHT22;9677;50.656;13.064;2023-05-02T15:50:10;19.60;45.00
19090;DHT22;9677;50.656;13.064;2023-05-02T15:52:38;19.40;45.10
19090;DHT22;9677;50.656;13.064;2023-05-02T15:55:07;19.40;45.20
19090;DHT22;9677;50.656;13.064;2023-05-02T15:57:37;19.20;45.20
19090;DHT22;9677;50.656;13.064;2023-05-02T16:00:07;19.30;45.40
19090;DHT22;9677;50.656;13.064;2023-05-02T16:02:42;19.00;45.40
19090;DHT22;9677;50.656;13.064;2023-05-02T16:05:11;18.90;45.60
19090;DHT22;9677;50.656;13.064;2023-05-02T16:07:40;18.80;45.70
19090;DHT22;9677;50.656;13.064;2023-05-02T16:10:09;18.80;45.60
19090;DHT22;9677;50.656;13.064;2023-05-02T16:12:39;18.60;45.60